sensor_id;sensor_type;location;lat;lon;timestamp;temperature;humidity
22984;DHT22;11658;48.908;9.140;2023-01-01T00:01:40;13.30;99.90
22984;DHT22;11658;48.908;9.140;2023-01-01T00:04:10;13.30;99.90
22984;DHT22;11658;48.908;9.140;2023-01-01T00:06:36;13.30;99.90
22984;DHT22;11658;48.908;9.140;2023-01-01T00:09:02;13.30;99.90
22984;DHT22;11658;48.908;9.140;2023-01-01T00:11:48;13.40;99.90
22984;DHT22;11658;48.908;9.140;2023-01-01T00:14:13;13.40;99.90
22984;DHT22;11658;48.908;9.140;2023-01-01T00:16:39;13.30;99.90
22984;DHT22;11658;48.908;9.140;2023-01-01T00:19:05;13.30;99.90
22984;DHT22;11658;48.908;9.140;2023-01-01T00:21:30;13.30;99.90
22984;DHT22;11658;48.908;9.140;2023-01-01T00:23:56;13.30;99.90
22984;DHT22;11658;48.908;9.140;2023-01-01T00:26:22;13.30;99.90
22984;DHT22;11658;48.908;9.140;2023-01-01T00:28:47;13.30;99.90
22984;DHT22;11658;48.908;9.140;2023-01-01T00:31:15;13.20;99.90
22984;DHT22;11658;48.908;9.140;2023-01-01T00:33:45;13.20;99.90
22984;DHT22;11658;48.908;9.140;2023-01-01T00:36:16;13.20;99.90
22984;DHT22;11658;48.908;9.140;2023-01-01T00:38:43;13.20;99.90
22984;DHT22;11658;48.908;9.140;2023-01-01T00:41:09;13.10;99.90
22984;DHT22;11658;48.908;9.140;2023-01-01T00:43:34;13.10;99.90
22984;DHT22;11658;48.908;9.140;2023-01-01T00:46:01;13.10;99.90
22984;DHT22;11658;48.908;9.140;2023-01-01T00:48:26;13.10;99.90
22984;DHT22;11658;48.908;9.140;2023-01-01T00:50:52;13.10;99.90
22984;DHT22;11658;48.908;9.140;2023-01-01T00:53:19;13.10;99.90
22984;DHT22;11658;48.908;9.140;2023-01-01T00:55:47;12.40;99.90
22984;DHT22;11658;48.908;9.140;2023-01-01T00:58:13;13.30;99.90
22984;DHT22;11658;48.908;9.140;2023-01-01T01:00:38;13.30;99.90
22984;DHT22;11658;48.908;9.140;2023-01-01T01:03:04;13.30;99.90
22984;DHT22;11658;48.908;9.140;2023-01-01T01:05:31;13.40;99.90
22984;DHT22;11658;48.908;9.140;2023-01-01T01:07:57;13.30;99.90
22984;DHT22;11658;48.908;9.140;2023-01-01T01:10:23;13.40;99.90
22984;DHT22;11658;48.908;9.140;2023-01-01T01:12:51;13.40;99.90
22984;DHT22;11658;48.908;9.140;2023-01-01T01:15:17;13.50;99.90
22984;DHT22;11658;48.908;9.140;2023-01-01T01:17:43;13.50;99.90
22984;DHT22;11658;48.908;9.140;2023-01-01T01:20:09;13.50;99.90
22984;DHT22;11658;48.908;9.140;2023-01-01T01:22:35;13.50;99.90
22984;DHT22;11658;48.908;9.140;2023-01-01T01:25:01;13.60;99.90
22984;DHT22;11658;48.908;9.140;2023-01-01T01:27:27;13.60;99.90
22984;DHT22;11658;48.908;9.140;2023-01-01T01:29:54;13.60;99.90
22984;DHT22;11658;48.908;9.140;2023-01-01T01:32:19;13.50;99.90
22984;DHT22;11658;48.908;9.140;2023-01-01T01:34:45;13.50;99.90
22984;DHT22;11658;48.908;9.140;2023-01-01T01:37:11;13.50;99.90
22984;DHT22;11658;48.908;9.140;2023-01-01T01:39:37;13.50;99.90
22984;DHT22;11658;48.908;9.140;2023-01-01T01:42:04;13.50;99.90
22984;DHT22;11658;48.908;9.140;2023-01-01T01:47:28;13.50;99.90
22984;DHT22;11658;48.908;9.140;2023-01-01T01:52:53;13.50;99.90
22984;DHT22;11658;48.908;9.140;2023-01-01T01:55:23;13.50;99.90
22984;DHT22;11658;48.908;9.140;2023-01-01T01:57:50;13.50;99.90
22984;DHT22;11658;48.908;9.140;2023-01-01T02:00:16;13.50;99.90
22984;DHT22;11658;48.908;9.140;2023-01-01T02:03:07;13.40;99.90
22984;DHT22;11658;48.908;9.140;2023-01-01T02:05:33;13.30;99.90
22984;DHT22;11658;48.908;9.140;2023-01-01T02:07:59;13.20;99.90
22984;DHT22;11658;48.908;9.140;2023-01-01T02:10:27;13.30;99.90
22984;DHT22;11658;48.908;9.140;2023-01-01T02:12:53;13.30;99.90
22984;DHT22;11658;48.908;9.140;2023-01-01T02:15:19;13.40;99.90
22984;DHT22;11658;48.908;9.140;2023-01-01T02:18:13;13.40;99.90
22984;DHT22;11658;48.908;9.140;2023-01-01T02:20:50;13.50;99.90
22984;DHT22;11658;48.908;9.140;2023-01-01T02:23:29;13.60;99.90
22984;DHT22;11658;48.908;9.140;2023-01-01T02:31:16;13.70;99.90
22984;DHT22;11658;48.908;9.140;2023-01-01T02:33:44;13.70;99.90
22984;DHT22;11658;48.908;9.140;2023-01-01T02:36:11;13.60;99.90
22984;DHT22;11658;48.908;9.140;2023-01-01T02:38:44;13.60;99.90
22984;DHT22;11658;48.908;9.140;2023-01-01T02:41:14;13.70;99.90
22984;DHT22;11658;48.908;9.140;2023-01-01T02:43:44;13.60;99.90
22984;DHT22;11658;48.908;9.140;2023-01-01T02:46:10;13.60;99.90
22984;DHT22;11658;48.908;9.140;2023-01-01T02:51:34;13.50;99.90
22984;DHT22;11658;48.908;9.140;2023-01-01T02:59:41;13.50;99.90
22984;DHT22;11658;48.908;9.140;2023-01-01T03:08:17;13.30;99.90
22984;DHT22;11658;48.908;9.140;2023-01-01T03:16:01;13.10;99.90
22984;DHT22;11658;48.908;9.140;2023-01-01T03:18:35;13.00;99.90
22984;DHT22;11658;48.908;9.140;2023-01-01T03:21:03;13.00;99.90
22984;DHT22;11658;48.908;9.140;2023-01-01T03:23:41;12.80;99.90
22984;DHT22;11658;48.908;9.140;2023-01-01T03:26:11;12.80;99.90
22984;DHT22;11658;48.908;9.140;2023-01-01T03:28:49;12.80;99.90
22984;DHT22;11658;48.908;9.140;2023-01-01T03:31:18;12.80;99.90
22984;DHT22;11658;48.908;9.140;2023-01-01T03:33:50;12.80;99.90
22984;DHT22;11658;48.908;9.140;2023-01-01T03:36:23;12.80;99.90
22984;DHT22;11658;48.908;9.140;2023-01-01T03:38:55;12.70;99.90
22984;DHT22;11658;48.908;9.140;2023-01-01T03:44:03;12.70;99.90
22984;DHT22;11658;48.908;9.140;2023-01-01T03:46:32;12.70;99.90
22984;DHT22;11658;48.908;9.140;2023-01-01T03:48:59;12.70;99.90
22984;DHT22;11658;48.908;9.140;2023-01-01T03:54:37;12.70;99.90
22984;DHT22;11658;48.908;9.140;2023-01-01T03:57:22;12.70;99.90
22984;DHT22;11658;48.908;9.140;2023-01-01T04:02:38;12.70;99.90
22984;DHT22;11658;48.908;9.140;2023-01-01T04:05:05;12.80;99.90
22984;DHT22;11658;48.908;9.140;2023-01-01T04:07:32;12.80;99.90
22984;DHT22;11658;48.908;9.140;2023-01-01T04:10:00;12.80;99.90
22984;DHT22;11658;48.908;9.140;2023-01-01T04:12:27;12.80;99.90
22984;DHT22;11658;48.908;9.140;2023-01-01T04:14:54;12.80;99.90
22984;DHT22;11658;48.908;9.140;2023-01-01T04:17:19;12.70;99.90
22984;DHT22;11658;48.908;9.140;2023-01-01T04:19:45;12.80;99.90
22984;DHT22;11658;48.908;9.140;2023-01-01T04:22:11;12.70;99.90
22984;DHT22;11658;48.908;9.140;2023-01-01T04:24:36;12.70;99.90
22984;DHT22;11658;48.908;9.140;2023-01-01T04:27:02;12.70;99.90
22984;DHT22;11658;48.908;9.140;2023-01-01T04:29:28;12.70;99.90
22984;DHT22;11658;48.908;9.140;2023-01-01T04:31:53;12.70;99.90
22984;DHT22;11658;48.908;9.140;2023-01-01T04:34:19;12.70;99.90
22984;DHT22;11658;48.908;9.140;2023-01-01T04:36:45;12.70;99.90
22984;DHT22;11658;48.908;9.140;2023-01-01T04:39:10;12.70;99.90
22984;DHT22;11658;48.908;9.140;2023-01-01T04:41:36;12.70;99.90
22984;DHT22;11658;48.908;9.140;2023-01-01T04:44:01;12.70;99.90
22984;DHT22;11658;48.908;9.140;2023-01-01T04:46:27;12.70;99.90
22984;DHT22;11658;48.908;9.140;2023-01-01T04:48:53;12.70;99.90
22984;DHT22;11658;48.908;9.140;2023-01-01T04:51:20;12.70;99.90
22984;DHT22;11658;48.908;9.140;2023-01-01T04:53:45;12.80;99.90
22984;DHT22;11658;48.908;9.140;2023-01-01T04:56:12;12.80;99.90
22984;DHT22;11658;48.908;9.140;2023-01-01T04:58:39;12.70;99.90
22984;DHT22;11658;48.908;9.140;2023-01-01T05:01:06;12.70;99.90
22984;DHT22;11658;48.908;9.140;2023-01-01T05:03:32;12.70;99.90
22984;DHT22;11658;48.908;9.140;2023-01-01T05:06:05;12.70;99.90
22984;DHT22;11658;48.908;9.140;2023-01-01T05:08:35;12.60;99.90
22984;DHT22;11658;48.908;9.140;2023-01-01T05:11:03;12.60;99.90
22984;DHT22;11658;48.908;9.140;2023-01-01T05:13:29;12.70;99.90
22984;DHT22;11658;48.908;9.140;2023-01-01T05:15:55;12.60;99.90
22984;DHT22;11658;48.908;9.140;2023-01-01T05:18:21;12.60;99.90
22984;DHT22;11658;48.908;9.140;2023-01-01T05:20:46;12.70;99.90
22984;DHT22;11658;48.908;9.140;2023-01-01T05:23:14;12.70;99.90
22984;DHT22;11658;48.908;9.140;2023-01-01T05:25:41;12.70;99.90
22984;DHT22;11658;48.908;9.140;2023-01-01T05:28:06;12.70;99.90
22984;DHT22;11658;48.908;9.140;2023-01-01T05:30:32;12.70;99.90
22984;DHT22;11658;48.908;9.140;2023-01-01T05:32:57;12.70;99.90
22984;DHT22;11658;48.908;9.140;2023-01-01T05:35:23;12.60;99.90
22984;DHT22;11658;48.908;9.140;2023-01-01T05:37:48;12.60;99.90
22984;DHT22;11658;48.908;9.140;2023-01-01T05:40:16;12.60;99.90
22984;DHT22;11658;48.908;9.140;2023-01-01T05:42:41;12.60;99.90
22984;DHT22;11658;48.908;9.140;2023-01-01T05:45:07;12.60;99.90
22984;DHT22;11658;48.908;9.140;2023-01-01T05:47:33;12.70;99.90
22984;DHT22;11658;48.908;9.140;2023-01-01T05:49:59;12.70;99.90
22984;DHT22;11658;48.908;9.140;2023-01-01T05:52:24;12.60;99.90
22984;DHT22;11658;48.908;9.140;2023-01-01T05:54:50;12.70;99.90
22984;DHT22;11658;48.908;9.140;2023-01-01T05:57:15;12.70;99.90
22984;DHT22;11658;48.908;9.140;2023-01-01T05:59:41;12.70;99.90
22984;DHT22;11658;48.908;9.140;2023-01-01T06:02:06;12.70;99.90
22984;DHT22;11658;48.908;9.140;2023-01-01T06:04:32;12.70;99.90
22984;DHT22;11658;48.908;9.140;2023-01-01T06:06:57;12.70;99.90
22984;DHT22;11658;48.908;9.140;2023-01-01T06:09:23;12.70;99.90
22984;DHT22;11658;48.908;9.140;2023-01-01T06:11:48;12.70;99.90
22984;DHT22;11658;48.908;9.140;2023-01-01T06:14:14;12.80;99.90
22984;DHT22;11658;48.908;9.140;2023-01-01T06:16:40;12.80;99.90
22984;DHT22;11658;48.908;9.140;2023-01-01T06:19:06;12.80;99.90
22984;DHT22;11658;48.908;9.140;2023-01-01T06:21:32;12.80;99.90
22984;DHT22;11658;48.908;9.140;2023-01-01T06:23:58;12.80;99.90
22984;DHT22;11658;48.908;9.140;2023-01-01T06:26:28;12.80;99.90
22984;DHT22;11658;48.908;9.140;2023-01-01T06:28:54;12.80;99.90
22984;DHT22;11658;48.908;9.140;2023-01-01T06:31:22;12.80;99.90
22984;DHT22;11658;48.908;9.140;2023-01-01T06:33:49;12.70;99.90
22984;DHT22;11658;48.908;9.140;2023-01-01T06:36:17;12.80;99.90
22984;DHT22;11658;48.908;9.140;2023-01-01T06:38:45;12.70;99.90
22984;DHT22;11658;48.908;9.140;2023-01-01T06:41:13;12.70;99.90
22984;DHT22;11658;48.908;9.140;2023-01-01T06:43:40;12.70;99.90
22984;DHT22;11658;48.908;9.140;2023-01-01T06:46:32;12.70;99.90
22984;DHT22;11658;48.908;9.140;2023-01-01T06:49:06;12.70;99.90
22984;DHT22;11658;48.908;9.140;2023-01-01T06:51:37;12.70;99.90
22984;DHT22;11658;48.908;9.140;2023-01-01T06:54:04;12.60;99.90
22984;DHT22;11658;48.908;9.140;2023-01-01T06:56:30;12.60;99.90
22984;DHT22;11658;48.908;9.140;2023-01-01T06:58:56;12.60;99.90
22984;DHT22;11658;48.908;9.140;2023-01-01T07:01:24;13.00;99.90
22984;DHT22;11658;48.908;9.140;2023-01-01T07:03:55;12.70;99.90
22984;DHT22;11658;48.908;9.140;2023-01-01T07:06:22;12.80;99.90
22984;DHT22;11658;48.908;9.140;2023-01-01T07:08:49;12.80;99.90
22984;DHT22;11658;48.908;9.140;2023-01-01T07:11:15;12.80;99.90
22984;DHT22;11658;48.908;9.140;2023-01-01T07:13:41;12.80;99.90
22984;DHT22;11658;48.908;9.140;2023-01-01T07:16:07;12.70;99.90
22984;DHT22;11658;48.908;9.140;2023-01-01T07:18:33;12.80;99.90
22984;DHT22;11658;48.908;9.140;2023-01-01T07:21:00;12.70;99.90
22984;DHT22;11658;48.908;9.140;2023-01-01T07:23:27;12.60;99.90
22984;DHT22;11658;48.908;9.140;2023-01-01T07:25:54;12.50;99.90
22984;DHT22;11658;48.908;9.140;2023-01-01T07:28:20;12.30;99.90
22984;DHT22;11658;48.908;9.140;2023-01-01T07:30:46;12.30;99.90
22984;DHT22;11658;48.908;9.140;2023-01-01T07:33:15;12.20;99.90
22984;DHT22;11658;48.908;9.140;2023-01-01T07:35:41;12.20;99.90
22984;DHT22;11658;48.908;9.140;2023-01-01T07:38:06;12.20;99.90
22984;DHT22;11658;48.908;9.140;2023-01-01T07:40:32;12.20;99.90
22984;DHT22;11658;48.908;9.140;2023-01-01T07:42:58;12.20;99.90
22984;DHT22;11658;48.908;9.140;2023-01-01T07:45:24;12.20;99.90
22984;DHT22;11658;48.908;9.140;2023-01-01T07:47:55;12.30;99.90
22984;DHT22;11658;48.908;9.140;2023-01-01T07:50:22;12.40;99.90
22984;DHT22;11658;48.908;9.140;2023-01-01T07:52:48;12.40;99.90
22984;DHT22;11658;48.908;9.140;2023-01-01T07:55:15;12.40;99.90
22984;DHT22;11658;48.908;9.140;2023-01-01T07:57:41;12.50;99.90
22984;DHT22;11658;48.908;9.140;2023-01-01T08:00:09;12.60;99.90
22984;DHT22;11658;48.908;9.140;2023-01-01T08:02:35;12.70;99.90
22984;DHT22;11658;48.908;9.140;2023-01-01T08:05:01;12.70;99.90
22984;DHT22;11658;48.908;9.140;2023-01-01T08:07:26;12.80;99.90
22984;DHT22;11658;48.908;9.140;2023-01-01T08:09:52;12.80;99.90
22984;DHT22;11658;48.908;9.140;2023-01-01T08:12:18;12.90;99.90
22984;DHT22;11658;48.908;9.140;2023-01-01T08:14:43;12.90;99.90
22984;DHT22;11658;48.908;9.140;2023-01-01T08:17:09;12.90;99.90
22984;DHT22;11658;48.908;9.140;2023-01-01T08:19:34;13.00;99.90
22984;DHT22;11658;48.908;9.140;2023-01-01T08:22:00;13.00;99.90
22984;DHT22;11658;48.908;9.140;2023-01-01T08:24:25;13.10;99.90
22984;DHT22;11658;48.908;9.140;2023-01-01T08:26:51;13.20;99.90
22984;DHT22;11658;48.908;9.140;2023-01-01T08:29:18;13.20;99.90
22984;DHT22;11658;48.908;9.140;2023-01-01T08:31:43;13.20;99.90
22984;DHT22;11658;48.908;9.140;2023-01-01T08:34:09;13.30;99.90
22984;DHT22;11658;48.908;9.140;2023-01-01T08:36:35;13.30;99.90
22984;DHT22;11658;48.908;9.140;2023-01-01T08:39:02;13.30;99.90
22984;DHT22;11658;48.908;9.140;2023-01-01T08:41:27;13.30;99.90
22984;DHT22;11658;48.908;9.140;2023-01-01T08:43:53;13.30;99.90
22984;DHT22;11658;48.908;9.140;2023-01-01T08:46:19;13.40;99.90
22984;DHT22;11658;48.908;9.140;2023-01-01T08:48:45;13.40;99.90
22984;DHT22;11658;48.908;9.140;2023-01-01T08:51:10;13.40;99.90
22984;DHT22;11658;48.908;9.140;2023-01-01T08:53:36;13.40;99.90
22984;DHT22;11658;48.908;9.140;2023-01-01T08:56:04;13.50;99.90
22984;DHT22;11658;48.908;9.140;2023-01-01T08:58:30;13.50;99.90
22984;DHT22;11658;48.908;9.140;2023-01-01T09:00:56;13.70;99.90
22984;DHT22;11658;48.908;9.140;2023-01-01T09:03:24;13.70;99.90
22984;DHT22;11658;48.908;9.140;2023-01-01T09:05:50;13.60;99.90
22984;DHT22;11658;48.908;9.140;2023-01-01T09:08:16;13.80;99.90
22984;DHT22;11658;48.908;9.140;2023-01-01T09:10:42;13.80;99.90
22984;DHT22;11658;48.908;9.140;2023-01-01T09:13:12;13.90;99.90
22984;DHT22;11658;48.908;9.140;2023-01-01T09:15:38;13.90;99.90
22984;DHT22;11658;48.908;9.140;2023-01-01T09:18:04;14.00;99.90
22984;DHT22;11658;48.908;9.140;2023-01-01T09:20:30;14.20;99.90
22984;DHT22;11658;48.908;9.140;2023-01-01T09:22:56;14.10;99.90
22984;DHT22;11658;48.908;9.140;2023-01-01T09:25:22;14.20;99.90
22984;DHT22;11658;48.908;9.140;2023-01-01T09:27:47;14.20;99.90
22984;DHT22;11658;48.908;9.140;2023-01-01T09:30:13;14.30;99.90
22984;DHT22;11658;48.908;9.140;2023-01-01T09:32:39;14.20;99.90
22984;DHT22;11658;48.908;9.140;2023-01-01T09:35:05;14.30;99.90
22984;DHT22;11658;48.908;9.140;2023-01-01T09:37:30;14.30;99.90
22984;DHT22;11658;48.908;9.140;2023-01-01T09:39:58;14.40;99.90
22984;DHT22;11658;48.908;9.140;2023-01-01T09:45:13;14.50;99.90
22984;DHT22;11658;48.908;9.140;2023-01-01T09:47:51;14.60;99.90
22984;DHT22;11658;48.908;9.140;2023-01-01T09:50:21;14.70;99.90
22984;DHT22;11658;48.908;9.140;2023-01-01T09:55:27;15.00;99.90
22984;DHT22;11658;48.908;9.140;2023-01-01T09:57:55;15.00;99.90
22984;DHT22;11658;48.908;9.140;2023-01-01T10:00:21;15.20;99.90
22984;DHT22;11658;48.908;9.140;2023-01-01T10:02:56;15.20;99.90
22984;DHT22;11658;48.908;9.140;2023-01-01T10:08:20;15.40;99.90
22984;DHT22;11658;48.908;9.140;2023-01-01T10:11:14;15.50;99.90
22984;DHT22;11658;48.908;9.140;2023-01-01T10:13:44;15.60;99.90
22984;DHT22;11658;48.908;9.140;2023-01-01T10:16:38;15.50;99.90
22984;DHT22;11658;48.908;9.140;2023-01-01T10:19:36;15.50;99.90
22984;DHT22;11658;48.908;9.140;2023-01-01T10:22:19;15.60;99.90
22984;DHT22;11658;48.908;9.140;2023-01-01T10:25:00;15.50;99.90
22984;DHT22;11658;48.908;9.140;2023-01-01T10:27:44;15.60;99.90
22984;DHT22;11658;48.908;9.140;2023-01-01T10:30:18;15.70;99.90
22984;DHT22;11658;48.908;9.140;2023-01-01T10:32:51;15.80;99.90
22984;DHT22;11658;48.908;9.140;2023-01-01T10:35:25;15.90;99.90
22984;DHT22;11658;48.908;9.140;2023-01-01T10:37:57;16.00;99.90
22984;DHT22;11658;48.908;9.140;2023-01-01T10:40:25;16.00;99.90
22984;DHT22;11658;48.908;9.140;2023-01-01T10:42:56;16.10;99.90
22984;DHT22;11658;48.908;9.140;2023-01-01T10:45:33;16.20;99.90
22984;DHT22;11658;48.908;9.140;2023-01-01T10:48:30;16.20;99.90
22984;DHT22;11658;48.908;9.140;2023-01-01T10:51:15;16.20;99.90
22984;DHT22;11658;48.908;9.140;2023-01-01T10:53:59;16.30;99.90
22984;DHT22;11658;48.908;9.140;2023-01-01T10:56:38;16.40;99.90
22984;DHT22;11658;48.908;9.140;2023-01-01T11:02:20;16.60;99.90
22984;DHT22;11658;48.908;9.140;2023-01-01T11:04:47;16.50;99.90
22984;DHT22;11658;48.908;9.140;2023-01-01T11:07:20;16.50;99.90
22984;DHT22;11658;48.908;9.140;2023-01-01T11:09:49;16.70;99.90
22984;DHT22;11658;48.908;9.140;2023-01-01T11:12:20;16.60;99.90
22984;DHT22;11658;48.908;9.140;2023-01-01T11:14:51;16.70;99.90
22984;DHT22;11658;48.908;9.140;2023-01-01T11:17:22;16.70;99.90
22984;DHT22;11658;48.908;9.140;2023-01-01T11:19:50;16.80;99.90
22984;DHT22;11658;48.908;9.140;2023-01-01T11:22:37;16.90;99.90
22984;DHT22;11658;48.908;9.140;2023-01-01T11:25:24;17.00;99.90
22984;DHT22;11658;48.908;9.140;2023-01-01T11:27:51;17.00;99.90
22984;DHT22;11658;48.908;9.140;2023-01-01T11:32:48;17.10;99.90
22984;DHT22;11658;48.908;9.140;2023-01-01T11:35:20;17.10;99.90
22984;DHT22;11658;48.908;9.140;2023-01-01T11:37:47;17.10;99.90
22984;DHT22;11658;48.908;9.140;2023-01-01T11:40:17;17.10;99.90
22984;DHT22;11658;48.908;9.140;2023-01-01T11:42:47;17.00;99.90
22984;DHT22;11658;48.908;9.140;2023-01-01T11:45:22;17.10;99.90
22984;DHT22;11658;48.908;9.140;2023-01-01T11:47:55;17.10;99.90
22984;DHT22;11658;48.908;9.140;2023-01-01T11:50:35;17.20;99.90
22984;DHT22;11658;48.908;9.140;2023-01-01T12:01:10;17.10;99.90
22984;DHT22;11658;48.908;9.140;2023-01-01T12:03:47;17.10;99.90
22984;DHT22;11658;48.908;9.140;2023-01-01T12:06:23;17.20;99.90
22984;DHT22;11658;48.908;9.140;2023-01-01T12:09:23;17.20;99.90
22984;DHT22;11658;48.908;9.140;2023-01-01T12:17:21;17.40;99.90
22984;DHT22;11658;48.908;9.140;2023-01-01T12:22:26;17.50;99.90
22984;DHT22;11658;48.908;9.140;2023-01-01T12:24:52;17.50;99.90
22984;DHT22;11658;48.908;9.140;2023-01-01T12:30:25;17.50;99.90
22984;DHT22;11658;48.908;9.140;2023-01-01T12:35:56;17.70;99.90
22984;DHT22;11658;48.908;9.140;2023-01-01T12:56:02;17.90;99.90
22984;DHT22;11658;48.908;9.140;2023-01-01T12:58:44;17.90;99.90
22984;DHT22;11658;48.908;9.140;2023-01-01T13:01:25;17.80;99.90
22984;DHT22;11658;48.908;9.140;2023-01-01T13:04:04;17.80;99.90
22984;DHT22;11658;48.908;9.140;2023-01-01T13:09:11;17.80;99.90
22984;DHT22;11658;48.908;9.140;2023-01-01T13:11:39;17.80;99.90
22984;DHT22;11658;48.908;9.140;2023-01-01T13:14:06;17.80;99.90
22984;DHT22;11658;48.908;9.140;2023-01-01T13:16:44;17.80;99.90
22984;DHT22;11658;48.908;9.140;2023-01-01T13:19:32;17.90;99.90
22984;DHT22;11658;48.908;9.140;2023-01-01T13:21:59;18.00;99.90
22984;DHT22;11658;48.908;9.140;2023-01-01T13:33:20;17.90;99.90
22984;DHT22;11658;48.908;9.140;2023-01-01T13:38:52;17.80;99.90
22984;DHT22;11658;48.908;9.140;2023-01-01T14:03:05;17.40;99.90
22984;DHT22;11658;48.908;9.140;2023-01-01T14:06:09;17.30;99.90
22984;DHT22;11658;48.908;9.140;2023-01-01T14:08:36;17.20;99.90
22984;DHT22;11658;48.908;9.140;2023-01-01T14:11:19;17.20;99.90
22984;DHT22;11658;48.908;9.140;2023-01-01T14:13:45;17.20;99.90
22984;DHT22;11658;48.908;9.140;2023-01-01T14:16:11;17.10;99.90
22984;DHT22;11658;48.908;9.140;2023-01-01T14:18:56;17.20;99.90
22984;DHT22;11658;48.908;9.140;2023-01-01T14:21:29;17.20;99.90
22984;DHT22;11658;48.908;9.140;2023-01-01T14:24:06;17.20;99.90
22984;DHT22;11658;48.908;9.140;2023-01-01T14:26:36;17.10;99.90
22984;DHT22;11658;48.908;9.140;2023-01-01T14:29:06;17.00;99.90
22984;DHT22;11658;48.908;9.140;2023-01-01T14:31:39;16.90;99.90
22984;DHT22;11658;48.908;9.140;2023-01-01T14:34:23;16.80;99.90
22984;DHT22;11658;48.908;9.140;2023-01-01T14:36:55;16.70;99.90
22984;DHT22;11658;48.908;9.140;2023-01-01T14:41:56;16.50;99.90
22984;DHT22;11658;48.908;9.140;2023-01-01T14:44:28;16.50;99.90
22984;DHT22;11658;48.908;9.140;2023-01-01T14:46:55;16.40;99.90
22984;DHT22;11658;48.908;9.140;2023-01-01T14:49:26;16.40;99.90
22984;DHT22;11658;48.908;9.140;2023-01-01T14:52:01;16.30;99.90
22984;DHT22;11658;48.908;9.140;2023-01-01T14:54:33;16.40;99.90
22984;DHT22;11658;48.908;9.140;2023-01-01T14:57:01;16.40;99.90
22984;DHT22;11658;48.908;9.140;2023-01-01T14:59:32;16.40;99.90
22984;DHT22;11658;48.908;9.140;2023-01-01T15:02:21;16.40;99.90
22984;DHT22;11658;48.908;9.140;2023-01-01T15:04:47;16.40;99.90
22984;DHT22;11658;48.908;9.140;2023-01-01T15:09:51;16.30;99.90
22984;DHT22;11658;48.908;9.140;2023-01-01T15:12:18;16.20;99.90
22984;DHT22;11658;48.908;9.140;2023-01-01T15:14:46;16.10;99.90
22984;DHT22;11658;48.908;9.140;2023-01-01T15:17:14;16.10;99.90
22984;DHT22;11658;48.908;9.140;2023-01-01T15:19:41;16.00;99.90
22984;DHT22;11658;48.908;9.140;2023-01-01T15:22:16;15.90;99.90
22984;DHT22;11658;48.908;9.140;2023-01-01T15:24:44;15.80;99.90
22984;DHT22;11658;48.908;9.140;2023-01-01T15:27:24;15.90;99.90
22984;DHT22;11658;48.908;9.140;2023-01-01T15:29:51;15.60;99.90
22984;DHT22;11658;48.908;9.140;2023-01-01T15:32:36;15.40;99.90
22984;DHT22;11658;48.908;9.140;2023-01-01T15:35:18;15.20;99.90
22984;DHT22;11658;48.908;9.140;2023-01-01T15:37:50;15.00;99.90
22984;DHT22;11658;48.908;9.140;2023-01-01T15:43:04;14.80;99.90
22984;DHT22;11658;48.908;9.140;2023-01-01T15:45:39;14.80;99.90
22984;DHT22;11658;48.908;9.140;2023-01-01T15:53:01;14.70;99.90
22984;DHT22;11658;48.908;9.140;2023-01-01T15:55:32;14.70;99.90
22984;DHT22;11658;48.908;9.140;2023-01-01T15:57:58;14.60;99.90
22984;DHT22;11658;48.908;9.140;2023-01-01T16:00:32;14.60;99.90
22984;DHT22;11658;48.908;9.140;2023-01-01T16:03:02;14.50;99.90
22984;DHT22;11658;48.908;9.140;2023-01-01T16:05:36;14.50;99.90
22984;DHT22;11658;48.908;9.140;2023-01-01T16:08:04;14.50;99.90
22984;DHT22;11658;48.908;9.140;2023-01-01T16:10:30;14.50;99.90
22984;DHT22;11658;48.908;9.140;2023-01-01T16:12:57;14.50;99.90
22984;DHT22;11658;48.908;9.140;2023-01-01T16:15:23;14.40;99.90
22984;DHT22;11658;48.908;9.140;2023-01-01T16:17:49;14.30;99.90
22984;DHT22;11658;48.908;9.140;2023-01-01T16:20:18;14.30;99.90
22984;DHT22;11658;48.908;9.140;2023-01-01T16:22:46;14.30;99.90
22984;DHT22;11658;48.908;9.140;2023-01-01T16:25:19;14.40;99.90
22984;DHT22;11658;48.908;9.140;2023-01-01T16:27:45;14.40;99.90
22984;DHT22;11658;48.908;9.140;2023-01-01T16:30:12;14.40;99.90
22984;DHT22;11658;48.908;9.140;2023-01-01T16:32:38;14.40;99.90
22984;DHT22;11658;48.908;9.140;2023-01-01T16:35:05;14.30;99.90
22984;DHT22;11658;48.908;9.140;2023-01-01T16:37:31;14.20;99.90
22984;DHT22;11658;48.908;9.140;2023-01-01T16:39:57;14.30;99.90
22984;DHT22;11658;48.908;9.140;2023-01-01T16:42:23;14.20;99.90
22984;DHT22;11658;48.908;9.140;2023-01-01T16:44:49;14.20;99.90
22984;DHT22;11658;48.908;9.140;2023-01-01T16:47:15;14.20;99.90
22984;DHT22;11658;48.908;9.140;2023-01-01T16:49:40;14.10;99.90
22984;DHT22;11658;48.908;9.140;2023-01-01T16:52:06;14.10;99.90
22984;DHT22;11658;48.908;9.140;2023-01-01T16:54:32;14.00;99.90
22984;DHT22;11658;48.908;9.140;2023-01-01T16:56:58;14.00;99.90
22984;DHT22;11658;48.908;9.140;2023-01-01T16:59:23;14.00;99.90
22984;DHT22;11658;48.908;9.140;2023-01-01T17:01:49;14.00;99.90
22984;DHT22;11658;48.908;9.140;2023-01-01T17:04:15;14.00;99.90
22984;DHT22;11658;48.908;9.140;2023-01-01T17:06:40;13.90;99.90
22984;DHT22;11658;48.908;9.140;2023-01-01T17:09:06;13.80;99.90
22984;DHT22;11658;48.908;9.140;2023-01-01T17:11:32;13.80;99.90
22984;DHT22;11658;48.908;9.140;2023-01-01T17:13:59;13.80;99.90
22984;DHT22;11658;48.908;9.140;2023-01-01T17:16:25;13.70;99.90
22984;DHT22;11658;48.908;9.140;2023-01-01T17:18:53;13.50;99.90
22984;DHT22;11658;48.908;9.140;2023-01-01T17:21:19;13.40;99.90
22984;DHT22;11658;48.908;9.140;2023-01-01T17:23:45;13.40;99.90
22984;DHT22;11658;48.908;9.140;2023-01-01T17:26:13;13.30;99.90
22984;DHT22;11658;48.908;9.140;2023-01-01T17:28:39;13.20;99.90
22984;DHT22;11658;48.908;9.140;2023-01-01T17:31:10;13.20;99.90
22984;DHT22;11658;48.908;9.140;2023-01-01T17:33:37;13.20;99.90
22984;DHT22;11658;48.908;9.140;2023-01-01T17:36:03;13.20;99.90
22984;DHT22;11658;48.908;9.140;2023-01-01T17:38:29;13.20;99.90
22984;DHT22;11658;48.908;9.140;2023-01-01T17:41:21;13.20;99.90
22984;DHT22;11658;48.908;9.140;2023-01-01T17:43:49;13.10;99.90
22984;DHT22;11658;48.908;9.140;2023-01-01T17:46:23;13.10;99.90
22984;DHT22;11658;48.908;9.140;2023-01-01T17:48:49;13.10;99.90
22984;DHT22;11658;48.908;9.140;2023-01-01T17:51:15;13.10;99.90
22984;DHT22;11658;48.908;9.140;2023-01-01T17:53:41;13.10;99.90
22984;DHT22;11658;48.908;9.140;2023-01-01T17:56:12;13.10;99.90
22984;DHT22;11658;48.908;9.140;2023-01-01T17:58:38;13.10;99.90
22984;DHT22;11658;48.908;9.140;2023-01-01T18:01:12;13.10;99.90
22984;DHT22;11658;48.908;9.140;2023-01-01T18:03:39;13.10;99.90
22984;DHT22;11658;48.908;9.140;2023-01-01T18:06:05;13.10;99.90